sensor_id;sensor_type;location;lat;lon;timestamp;P1;durP1;ratioP1;P2;durP2;ratioP2
47367;SDS011;34646;47.964;7.982;2024-02-16T00:01:28;10.88;;;2.40;;
47367;SDS011;34646;47.964;7.982;2024-02-16T00:07:30;7.43;;;2.20;;
47367;SDS011;34646;47.964;7.982;2024-02-16T00:13:31;7.00;;;2.50;;
47367;SDS011;34646;47.964;7.982;2024-02-16T00:19:32;9.60;;;2.63;;
47367;SDS011;34646;47.964;7.982;2024-02-16T00:25:33;5.47;;;1.93;;
47367;SDS011;34646;47.964;7.982;2024-02-16T00:31:35;7.27;;;2.30;;
47367;SDS011;34646;47.964;7.982;2024-02-16T00:37:36;6.97;;;2.28;;
47367;SDS011;34646;47.964;7.982;2024-02-16T00:43:38;6.43;;;2.30;;
47367;SDS011;34646;47.964;7.982;2024-02-16T00:55:40;8.02;;;2.65;;
47367;SDS011;34646;47.964;7.982;2024-02-16T01:01:45;6.38;;;2.17;;
47367;SDS011;34646;47.964;7.982;2024-02-16T01:07:47;10.43;;;2.50;;
47367;SDS011;34646;47.964;7.982;2024-02-16T01:13:48;12.02;;;2.40;;
47367;SDS011;34646;47.964;7.982;2024-02-16T01:19:49;7.70;;;2.20;;
47367;SDS011;34646;47.964;7.982;2024-02-16T01:25:50;5.83;;;1.90;;
47367;SDS011;34646;47.964;7.982;2024-02-16T01:31:51;7.35;;;2.13;;
47367;SDS011;34646;47.964;7.982;2024-02-16T01:37:52;5.50;;;2.20;;
47367;SDS011;34646;47.964;7.982;2024-02-16T01:43:53;6.45;;;2.35;;
47367;SDS011;34646;47.964;7.982;2024-02-16T01:49:57;6.10;;;2.05;;
47367;SDS011;34646;47.964;7.982;2024-02-16T01:55:58;7.63;;;2.25;;
47367;SDS011;34646;47.964;7.982;2024-02-16T02:02:00;8.82;;;2.22;;
47367;SDS011;34646;47.964;7.982;2024-02-16T02:08:10;6.40;;;2.28;;
47367;SDS011;34646;47.964;7.982;2024-02-16T02:14:11;7.35;;;2.30;;
47367;SDS011;34646;47.964;7.982;2024-02-16T02:20:12;6.27;;;2.07;;
47367;SDS011;34646;47.964;7.982;2024-02-16T02:26:14;7.00;;;2.17;;
47367;SDS011;34646;47.964;7.982;2024-02-16T02:32:16;8.50;;;2.10;;
47367;SDS011;34646;47.964;7.982;2024-02-16T02:38:17;5.60;;;1.90;;
47367;SDS011;34646;47.964;7.982;2024-02-16T02:44:19;3.88;;;1.60;;
47367;SDS011;34646;47.964;7.982;2024-02-16T02:50:20;4.87;;;1.70;;
47367;SDS011;34646;47.964;7.982;2024-02-16T02:56:21;12.30;;;2.00;;
47367;SDS011;34646;47.964;7.982;2024-02-16T03:02:22;3.43;;;1.47;;
47367;SDS011;34646;47.964;7.982;2024-02-16T03:08:23;4.35;;;2.00;;
47367;SDS011;34646;47.964;7.982;2024-02-16T03:14:24;4.80;;;1.90;;
47367;SDS011;34646;47.964;7.982;2024-02-16T03:20:25;5.18;;;1.80;;
47367;SDS011;34646;47.964;7.982;2024-02-16T03:26:26;7.70;;;2.25;;
47367;SDS011;34646;47.964;7.982;2024-02-16T03:32:27;6.10;;;1.70;;
47367;SDS011;34646;47.964;7.982;2024-02-16T03:38:28;6.03;;;1.50;;
47367;SDS011;34646;47.964;7.982;2024-02-16T03:44:29;5.87;;;1.83;;
47367;SDS011;34646;47.964;7.982;2024-02-16T03:56:31;4.80;;;1.48;;
47367;SDS011;34646;47.964;7.982;2024-02-16T04:02:32;6.60;;;2.33;;
47367;SDS011;34646;47.964;7.982;2024-02-16T04:08:34;8.27;;;1.77;;
47367;SDS011;34646;47.964;7.982;2024-02-16T04:14:35;3.35;;;1.60;;
47367;SDS011;34646;47.964;7.982;2024-02-16T04:20:36;6.30;;;2.27;;
47367;SDS011;34646;47.964;7.982;2024-02-16T04:26:38;3.85;;;1.60;;
47367;SDS011;34646;47.964;7.982;2024-02-16T04:32:39;5.97;;;1.63;;
47367;SDS011;34646;47.964;7.982;2024-02-16T04:38:40;5.23;;;2.00;;
47367;SDS011;34646;47.964;7.982;2024-02-16T04:44:41;6.95;;;1.77;;
47367;SDS011;34646;47.964;7.982;2024-02-16T04:50:42;4.90;;;2.00;;
47367;SDS011;34646;47.964;7.982;2024-02-16T04:56:43;3.70;;;1.43;;
47367;SDS011;34646;47.964;7.982;2024-02-16T05:02:45;4.40;;;1.42;;
47367;SDS011;34646;47.964;7.982;2024-02-16T05:08:46;3.55;;;1.50;;
47367;SDS011;34646;47.964;7.982;2024-02-16T05:14:48;4.28;;;1.42;;
47367;SDS011;34646;47.964;7.982;2024-02-16T05:20:52;3.90;;;1.42;;
47367;SDS011;34646;47.964;7.982;2024-02-16T05:26:56;2.70;;;1.23;;
47367;SDS011;34646;47.964;7.982;2024-02-16T05:33:04;4.28;;;1.67;;
47367;SDS011;34646;47.964;7.982;2024-02-16T05:39:05;3.78;;;1.58;;
47367;SDS011;34646;47.964;7.982;2024-02-16T05:45:20;7.47;;;1.42;;
47367;SDS011;34646;47.964;7.982;2024-02-16T05:51:24;2.78;;;1.48;;
47367;SDS011;34646;47.964;7.982;2024-02-16T05:57:25;4.43;;;1.30;;
47367;SDS011;34646;47.964;7.982;2024-02-16T06:03:26;4.50;;;1.43;;
47367;SDS011;34646;47.964;7.982;2024-02-16T06:09:27;4.97;;;1.30;;
47367;SDS011;34646;47.964;7.982;2024-02-16T06:15:33;1.92;;;1.10;;
47367;SDS011;34646;47.964;7.982;2024-02-16T06:21:38;2.95;;;1.20;;
47367;SDS011;34646;47.964;7.982;2024-02-16T06:27:39;5.03;;;1.40;;
47367;SDS011;34646;47.964;7.982;2024-02-16T06:33:40;4.57;;;1.43;;
47367;SDS011;34646;47.964;7.982;2024-02-16T06:39:41;6.73;;;1.40;;
47367;SDS011;34646;47.964;7.982;2024-02-16T06:45:43;5.82;;;1.70;;
47367;SDS011;34646;47.964;7.982;2024-02-16T06:51:44;3.70;;;1.00;;
47367;SDS011;34646;47.964;7.982;2024-02-16T06:57:45;6.07;;;1.20;;
47367;SDS011;34646;47.964;7.982;2024-02-16T07:03:46;7.77;;;2.07;;
47367;SDS011;34646;47.964;7.982;2024-02-16T07:09:48;6.22;;;1.48;;
47367;SDS011;34646;47.964;7.982;2024-02-16T07:15:49;5.13;;;1.25;;
47367;SDS011;34646;47.964;7.982;2024-02-16T07:27:52;6.68;;;1.50;;
47367;SDS011;34646;47.964;7.982;2024-02-16T07:33:53;9.75;;;1.40;;
47367;SDS011;34646;47.964;7.982;2024-02-16T07:39:54;5.30;;;1.30;;
47367;SDS011;34646;47.964;7.982;2024-02-16T07:45:55;5.83;;;1.63;;
47367;SDS011;34646;47.964;7.982;2024-02-16T08:04:59;6.43;;;1.45;;
47367;SDS011;34646;47.964;7.982;2024-02-16T08:11:00;6.13;;;1.60;;
47367;SDS011;34646;47.964;7.982;2024-02-16T08:17:02;16.60;;;2.63;;
47367;SDS011;34646;47.964;7.982;2024-02-16T08:23:03;11.85;;;1.52;;
47367;SDS011;34646;47.964;7.982;2024-02-16T08:29:04;9.52;;;1.77;;
47367;SDS011;34646;47.964;7.982;2024-02-16T08:35:06;11.32;;;2.13;;
47367;SDS011;34646;47.964;7.982;2024-02-16T08:41:07;7.82;;;1.60;;
47367;SDS011;34646;47.964;7.982;2024-02-16T08:47:08;10.45;;;2.05;;
47367;SDS011;34646;47.964;7.982;2024-02-16T08:53:09;6.18;;;1.50;;
47367;SDS011;34646;47.964;7.982;2024-02-16T08:59:10;9.15;;;1.70;;
47367;SDS011;34646;47.964;7.982;2024-02-16T09:05:11;4.82;;;1.60;;
47367;SDS011;34646;47.964;7.982;2024-02-16T09:11:12;5.37;;;1.67;;
47367;SDS011;34646;47.964;7.982;2024-02-16T09:17:14;10.88;;;2.00;;
47367;SDS011;34646;47.964;7.982;2024-02-16T09:23:15;10.32;;;2.00;;
47367;SDS011;34646;47.964;7.982;2024-02-16T09:29:16;10.43;;;2.33;;
47367;SDS011;34646;47.964;7.982;2024-02-16T09:35:18;16.35;;;2.17;;
47367;SDS011;34646;47.964;7.982;2024-02-16T09:41:19;15.07;;;1.70;;
47367;SDS011;34646;47.964;7.982;2024-02-16T09:47:20;13.40;;;1.90;;
47367;SDS011;34646;47.964;7.982;2024-02-16T09:53:23;12.82;;;1.80;;
47367;SDS011;34646;47.964;7.982;2024-02-16T09:59:26;10.85;;;1.80;;
47367;SDS011;34646;47.964;7.982;2024-02-16T10:05:27;8.27;;;1.80;;
47367;SDS011;34646;47.964;7.982;2024-02-16T10:11:30;8.82;;;2.22;;
47367;SDS011;34646;47.964;7.982;2024-02-16T10:23:32;12.30;;;2.33;;
47367;SDS011;34646;47.964;7.982;2024-02-16T10:29:34;8.75;;;2.60;;
47367;SDS011;34646;47.964;7.982;2024-02-16T10:35:35;10.63;;;2.42;;
47367;SDS011;34646;47.964;7.982;2024-02-16T10:41:40;11.45;;;2.63;;
47367;SDS011;34646;47.964;7.982;2024-02-16T10:47:42;18.42;;;2.13;;
47367;SDS011;34646;47.964;7.982;2024-02-16T10:53:43;21.38;;;2.67;;
47367;SDS011;34646;47.964;7.982;2024-02-16T11:05:50;12.00;;;2.22;;
47367;SDS011;34646;47.964;7.982;2024-02-16T11:11:52;17.25;;;2.08;;
47367;SDS011;34646;47.964;7.982;2024-02-16T11:17:55;20.23;;;2.17;;
47367;SDS011;34646;47.964;7.982;2024-02-16T11:24:03;28.25;;;2.88;;
47367;SDS011;34646;47.964;7.982;2024-02-16T11:30:10;25.55;;;2.20;;
47367;SDS011;34646;47.964;7.982;2024-02-16T11:36:11;15.85;;;3.33;;
47367;SDS011;34646;47.964;7.982;2024-02-16T11:42:12;19.10;;;2.53;;
47367;SDS011;34646;47.964;7.982;2024-02-16T11:48:24;24.67;;;2.85;;
47367;SDS011;34646;47.964;7.982;2024-02-16T12:00:27;19.17;;;2.97;;
47367;SDS011;34646;47.964;7.982;2024-02-16T12:06:27;20.03;;;2.40;;
47367;SDS011;34646;47.964;7.982;2024-02-16T12:12:30;21.05;;;3.08;;
47367;SDS011;34646;47.964;7.982;2024-02-16T12:18:32;28.10;;;3.50;;
47367;SDS011;34646;47.964;7.982;2024-02-16T12:24:32;24.80;;;2.53;;
47367;SDS011;34646;47.964;7.982;2024-02-16T12:30:33;19.43;;;2.07;;
47367;SDS011;34646;47.964;7.982;2024-02-16T12:36:35;20.13;;;2.58;;
47367;SDS011;34646;47.964;7.982;2024-02-16T12:42:36;15.65;;;2.00;;
47367;SDS011;34646;47.964;7.982;2024-02-16T12:54:38;12.25;;;2.10;;
47367;SDS011;34646;47.964;7.982;2024-02-16T13:00:39;17.10;;;2.35;;
47367;SDS011;34646;47.964;7.982;2024-02-16T13:06:40;12.18;;;1.70;;
47367;SDS011;34646;47.964;7.982;2024-02-16T13:12:41;13.90;;;2.42;;
47367;SDS011;34646;47.964;7.982;2024-02-16T13:18:43;13.25;;;2.25;;
47367;SDS011;34646;47.964;7.982;2024-02-16T13:24:44;12.05;;;2.05;;
47367;SDS011;34646;47.964;7.982;2024-02-16T13:30:44;10.30;;;2.20;;
47367;SDS011;34646;47.964;7.982;2024-02-16T13:36:45;10.80;;;1.88;;
47367;SDS011;34646;47.964;7.982;2024-02-16T13:42:46;11.30;;;2.43;;
47367;SDS011;34646;47.964;7.982;2024-02-16T13:48:48;16.08;;;1.75;;
47367;SDS011;34646;47.964;7.982;2024-02-16T13:54:49;16.85;;;3.00;;
47367;SDS011;34646;47.964;7.982;2024-02-16T14:00:50;16.85;;;2.15;;
47367;SDS011;34646;47.964;7.982;2024-02-16T14:06:51;15.48;;;2.15;;
47367;SDS011;34646;47.964;7.982;2024-02-16T14:12:52;8.23;;;1.60;;
47367;SDS011;34646;47.964;7.982;2024-02-16T14:18:53;10.85;;;1.95;;
47367;SDS011;34646;47.964;7.982;2024-02-16T14:24:54;17.77;;;2.40;;
47367;SDS011;34646;47.964;7.982;2024-02-16T14:30:55;16.35;;;2.47;;
47367;SDS011;34646;47.964;7.982;2024-02-16T14:42:58;18.10;;;2.35;;
47367;SDS011;34646;47.964;7.982;2024-02-16T14:48:59;12.50;;;2.30;;
47367;SDS011;34646;47.964;7.982;2024-02-16T14:55:00;9.15;;;1.52;;
47367;SDS011;34646;47.964;7.982;2024-02-16T15:01:01;7.45;;;1.42;;
47367;SDS011;34646;47.964;7.982;2024-02-16T15:07:02;11.80;;;1.63;;
47367;SDS011;34646;47.964;7.982;2024-02-16T15:19:05;7.57;;;1.90;;
47367;SDS011;34646;47.964;7.982;2024-02-16T15:25:06;7.05;;;2.15;;
47367;SDS011;34646;47.964;7.982;2024-02-16T15:31:08;10.93;;;2.35;;
47367;SDS011;34646;47.964;7.982;2024-02-16T15:37:09;12.07;;;2.13;;
47367;SDS011;34646;47.964;7.982;2024-02-16T15:43:10;13.88;;;2.80;;
47367;SDS011;34646;47.964;7.982;2024-02-16T15:49:12;13.45;;;2.40;;
47367;SDS011;34646;47.964;7.982;2024-02-16T15:55:13;10.40;;;2.25;;
47367;SDS011;34646;47.964;7.982;2024-02-16T16:01:14;10.77;;;2.05;;
47367;SDS011;34646;47.964;7.982;2024-02-16T16:07:15;9.63;;;2.20;;
47367;SDS011;34646;47.964;7.982;2024-02-16T16:13:16;9.95;;;2.15;;
47367;SDS011;34646;47.964;7.982;2024-02-16T16:19:17;15.77;;;2.53;;
47367;SDS011;34646;47.964;7.982;2024-02-16T16:25:18;8.55;;;1.98;;
47367;SDS011;34646;47.964;7.982;2024-02-16T16:31:19;10.77;;;2.38;;
47367;SDS011;34646;47.964;7.982;2024-02-16T16:37:20;11.57;;;2.20;;
47367;SDS011;34646;47.964;7.982;2024-02-16T16:43:22;13.98;;;2.45;;
47367;SDS011;34646;47.964;7.982;2024-02-16T16:49:23;11.60;;;1.88;;
47367;SDS011;34646;47.964;7.982;2024-02-16T16:55:25;8.02;;;2.30;;
47367;SDS011;34646;47.964;7.982;2024-02-16T17:01:27;20.60;;;3.15;;
47367;SDS011;34646;47.964;7.982;2024-02-16T17:07:28;16.65;;;2.95;;
47367;SDS011;34646;47.964;7.982;2024-02-16T17:13:34;26.05;;;2.63;;
47367;SDS011;34646;47.964;7.982;2024-02-16T17:19:35;18.42;;;3.55;;
47367;SDS011;34646;47.964;7.982;2024-02-16T17:25:36;18.20;;;2.65;;
47367;SDS011;34646;47.964;7.982;2024-02-16T17:31:37;8.82;;;2.70;;
47367;SDS011;34646;47.964;7.982;2024-02-16T17:37:38;9.20;;;2.38;;
47367;SDS011;34646;47.964;7.982;2024-02-16T17:43:43;9.32;;;2.05;;
47367;SDS011;34646;47.964;7.982;2024-02-16T17:49:45;11.10;;;2.42;;
47367;SDS011;34646;47.964;7.982;2024-02-16T17:55:46;10.70;;;2.47;;
47367;SDS011;34646;47.964;7.982;2024-02-16T18:01:47;10.45;;;2.70;;
47367;SDS011;34646;47.964;7.982;2024-02-16T18:07:48;13.15;;;2.17;;
47367;SDS011;34646;47.964;7.982;2024-02-16T18:13:49;7.97;;;2.40;;
47367;SDS011;34646;47.964;7.982;2024-02-16T18:19:50;15.45;;;3.08;;
47367;SDS011;34646;47.964;7.982;2024-02-16T18:25:52;10.75;;;2.70;;
47367;SDS011;34646;47.964;7.982;2024-02-16T18:31:53;7.03;;;2.25;;
47367;SDS011;34646;47.964;7.982;2024-02-16T18:37:54;12.05;;;2.47;;
47367;SDS011;34646;47.964;7.982;2024-02-16T18:43:55;8.57;;;2.55;;
47367;SDS011;34646;47.964;7.982;2024-02-16T18:49:56;12.88;;;3.55;;
47367;SDS011;34646;47.964;7.982;2024-02-16T18:55:57;7.75;;;2.30;;
47367;SDS011;34646;47.964;7.982;2024-02-16T19:01:58;11.40;;;2.40;;
47367;SDS011;34646;47.964;7.982;2024-02-16T19:08:01;13.18;;;2.95;;
47367;SDS011;34646;47.964;7.982;2024-02-16T19:14:02;9.47;;;2.87;;
47367;SDS011;34646;47.964;7.982;2024-02-16T19:20:03;8.95;;;2.92;;
47367;SDS011;34646;47.964;7.982;2024-02-16T19:26:04;8.52;;;2.63;;
47367;SDS011;34646;47.964;7.982;2024-02-16T19:32:08;11.18;;;3.10;;
47367;SDS011;34646;47.964;7.982;2024-02-16T19:38:09;10.30;;;3.83;;
47367;SDS011;34646;47.964;7.982;2024-02-16T19:44:13;11.73;;;2.53;;
47367;SDS011;34646;47.964;7.982;2024-02-16T19:50:16;14.98;;;2.90;;
47367;SDS011;34646;47.964;7.982;2024-02-16T19:56:18;11.95;;;2.90;;
47367;SDS011;34646;47.964;7.982;2024-02-16T20:02:19;8.67;;;2.70;;
47367;SDS011;34646;47.964;7.982;2024-02-16T20:08:20;12.35;;;3.05;;
47367;SDS011;34646;47.964;7.982;2024-02-16T20:14:21;13.68;;;3.55;;
47367;SDS011;34646;47.964;7.982;2024-02-16T20:20:22;7.87;;;2.87;;
47367;SDS011;34646;47.964;7.982;2024-02-16T20:26:23;15.40;;;2.78;;
47367;SDS011;34646;47.964;7.982;2024-02-16T20:32:24;14.25;;;3.70;;
47367;SDS011;34646;47.964;7.982;2024-02-16T20:38:26;14.98;;;2.65;;
47367;SDS011;34646;47.964;7.982;2024-02-16T20:44:26;12.07;;;2.83;;
47367;SDS011;34646;47.964;7.982;2024-02-16T20:50:27;11.13;;;2.67;;
47367;SDS011;34646;47.964;7.982;2024-02-16T20:56:29;9.75;;;2.88;;
47367;SDS011;34646;47.964;7.982;2024-02-16T21:02:30;9.18;;;2.58;;
47367;SDS011;34646;47.964;7.982;2024-02-16T21:08:31;7.80;;;2.65;;
47367;SDS011;34646;47.964;7.982;2024-02-16T21:14:32;7.80;;;2.40;;
47367;SDS011;34646;47.964;7.982;2024-02-16T21:20:33;8.57;;;2.80;;
47367;SDS011;34646;47.964;7.982;2024-02-16T21:26:34;10.18;;;2.78;;
47367;SDS011;34646;47.964;7.982;2024-02-16T21:32:35;16.77;;;2.70;;
47367;SDS011;34646;47.964;7.982;2024-02-16T21:38:36;6.70;;;2.78;;
47367;SDS011;34646;47.964;7.982;2024-02-16T21:44:37;9.07;;;2.65;;
47367;SDS011;34646;47.964;7.982;2024-02-16T21:50:40;6.68;;;2.70;;
47367;SDS011;34646;47.964;7.982;2024-02-16T21:56:41;7.72;;;2.38;;
47367;SDS011;34646;47.964;7.982;2024-02-16T22:02:42;11.93;;;2.55;;
47367;SDS011;34646;47.964;7.982;2024-02-16T22:08:43;8.97;;;2.47;;
47367;SDS011;34646;47.964;7.982;2024-02-16T22:14:44;5.80;;;2.13;;
47367;SDS011;34646;47.964;7.982;2024-02-16T22:20:45;6.75;;;2.55;;
47367;SDS011;34646;47.964;7.982;2024-02-16T22:26:47;7.63;;;2.20;;
47367;SDS011;34646;47.964;7.982;2024-02-16T22:32:48;8.48;;;3.00;;
47367;SDS011;34646;47.964;7.982;2024-02-16T22:38:49;6.75;;;2.63;;
47367;SDS011;34646;47.964;7.982;2024-02-16T22:44:50;6.45;;;2.25;;
47367;SDS011;34646;47.964;7.982;2024-02-16T22:50:51;5.20;;;1.83;;
47367;SDS011;34646;47.964;7.982;2024-02-16T22:56:52;6.57;;;2.10;;
47367;SDS011;34646;47.964;7.982;2024-02-16T23:02:53;14.07;;;4.17;;
47367;SDS011;34646;47.964;7.982;2024-02-16T23:08:54;4.25;;;2.10;;
47367;SDS011;34646;47.964;7.982;2024-02-16T23:14:55;8.25;;;2.50;;
47367;SDS011;34646;47.964;7.982;2024-02-16T23:20:57;5.97;;;2.28;;
47367;SDS011;34646;47.964;7.982;2024-02-16T23:26:59;3.45;;;2.10;;
47367;SDS011;34646;47.964;7.982;2024-02-16T23:33:00;8.45;;;2.10;;
47367;SDS011;34646;47.964;7.982;2024-02-16T23:39:01;6.50;;;2.17;;
47367;SDS011;34646;47.964;7.982;2024-02-16T23:45:02;6.90;;;2.00;;
47367;SDS011;34646;47.964;7.982;2024-02-16T23:51:03;4.13;;;1.65;;
47367;SDS011;34646;47.964;7.982;2024-02-16T23:57:04;5.63;;;2.35;;
